createdAt,value
2019-03-04T00:01:23.065Z,14.60
2019-03-04T00:04:13.359Z,14.60
2019-03-04T00:06:51.288Z,14.60
2019-03-04T00:09:42.264Z,14.70
2019-03-04T00:12:20.343Z,14.70
2019-03-04T00:17:58.631Z,14.60
2019-03-04T00:26:20.861Z,14.50
2019-03-04T00:28:58.722Z,14.70
2019-03-04T00:31:48.083Z,14.80
2019-03-04T00:34:42.526Z,14.70
2019-03-04T00:37:27.037Z,14.70
2019-03-04T00:40:25.895Z,14.70
2019-03-04T00:43:09.748Z,14.50
2019-03-04T00:45:55.915Z,14.50
2019-03-04T00:59:34.750Z,14.50
2019-03-04T01:02:22.119Z,14.50
2019-03-04T01:05:16.841Z,14.60
2019-03-04T01:07:55.251Z,14.70
2019-03-04T01:10:45.679Z,14.80
2019-03-04T01:13:24.300Z,14.90
2019-03-04T01:16:15.729Z,14.90
2019-03-04T01:18:58.269Z,14.90
2019-03-04T01:21:48.840Z,14.90
2019-03-04T01:24:26.825Z,15.00
2019-03-04T01:27:17.837Z,15.00
2019-03-04T01:29:58.027Z,14.90
2019-03-04T01:32:55.138Z,14.90
2019-03-04T01:35:49.418Z,14.90
2019-03-04T01:38:33.460Z,14.80
2019-03-04T01:44:13.334Z,14.60
2019-03-04T01:47:07.720Z,14.50
2019-03-04T01:49:50.022Z,14.50
2019-03-04T01:52:28.614Z,14.50
2019-03-04T01:55:24.536Z,14.50
2019-03-04T01:58:02.142Z,14.70
2019-03-04T02:00:51.095Z,14.70
2019-03-04T02:03:34.465Z,14.80
2019-03-04T02:06:29.462Z,14.80
2019-03-04T02:09:07.971Z,14.80
2019-03-04T02:11:59.058Z,14.70
2019-03-04T02:14:35.506Z,14.80
2019-03-04T02:17:25.963Z,14.70
2019-03-04T02:20:03.507Z,13.70
2019-03-04T02:22:53.242Z,14.70
2019-03-04T02:26:15.232Z,14.60
2019-03-04T02:29:05.641Z,14.50
2019-03-04T02:31:42.958Z,14.50
2019-03-04T02:37:27.663Z,14.50
2019-03-04T02:43:10.106Z,14.60
2019-03-04T02:46:24.699Z,14.50
2019-03-04T02:49:14.974Z,14.50
2019-03-04T02:51:52.499Z,14.60
2019-03-04T02:54:42.925Z,14.50
2019-03-04T02:57:22.115Z,14.50
2019-03-04T03:00:13.480Z,14.50
2019-03-04T03:02:51.742Z,14.40
2019-03-04T03:08:41.643Z,14.40
2019-03-04T03:11:42.173Z,14.50
2019-03-04T03:14:31.981Z,14.50
2019-03-04T03:17:12.963Z,14.60
2019-03-04T03:25:26.010Z,14.60
2019-03-04T03:28:21.647Z,14.50
2019-03-04T03:33:57.784Z,14.60
2019-03-04T03:36:41.152Z,14.60
2019-03-04T03:42:14.531Z,14.50
2019-03-04T03:47:54.053Z,14.50
2019-03-04T03:50:49.350Z,14.50
2019-03-04T03:53:34.784Z,14.40
2019-03-04T03:56:31.891Z,14.40
2019-03-04T04:04:39.734Z,14.60
2019-03-04T04:07:22.463Z,14.80
2019-03-04T04:10:13.148Z,14.80
2019-03-04T04:12:50.926Z,15.00
2019-03-04T04:15:50.463Z,15.40
2019-03-04T04:18:27.883Z,16.40
2019-03-04T04:21:11.675Z,16.90
2019-03-04T04:23:55.140Z,17.20
2019-03-04T04:26:46.647Z,17.50
2019-03-04T04:29:22.689Z,17.60
2019-03-04T04:34:57.086Z,17.70
2019-03-04T04:37:48.883Z,18.00
2019-03-04T04:40:31.906Z,18.10
2019-03-04T04:43:16.259Z,17.90
2019-03-04T04:46:05.177Z,18.00
2019-03-04T04:48:58.276Z,18.00
2019-03-04T04:54:32.883Z,17.80
2019-03-04T04:57:19.734Z,17.90
2019-03-04T05:00:08.076Z,17.90
2019-03-04T05:02:45.218Z,17.90
2019-03-04T05:05:33.303Z,17.80
2019-03-04T05:08:16.937Z,17.80
2019-03-04T05:11:04.744Z,17.80
2019-03-04T05:13:42.319Z,17.80
2019-03-04T05:16:34.096Z,17.70
2019-03-04T05:19:32.153Z,17.70
2019-03-04T05:22:27.110Z,17.60
2019-03-04T05:25:06.658Z,17.60
2019-03-04T05:27:55.823Z,17.60
2019-03-04T05:30:39.322Z,17.50
2019-03-04T05:33:23.567Z,17.50
2019-03-04T05:36:06.528Z,17.40
2019-03-04T05:39:03.686Z,17.50
2019-03-04T05:41:47.684Z,17.50
2019-03-04T05:44:39.108Z,17.70
2019-03-04T05:47:16.328Z,18.10
2019-03-04T05:50:05.523Z,17.90
2019-03-04T05:53:00.135Z,17.90
2019-03-04T05:55:43.074Z,17.80
2019-03-04T05:58:21.082Z,17.90
2019-03-04T06:01:25.862Z,17.80
2019-03-04T06:04:05.332Z,17.90
2019-03-04T06:07:14.909Z,17.90
2019-03-04T06:09:53.185Z,17.80
2019-03-04T06:12:48.052Z,17.80
2019-03-04T06:15:26.533Z,17.80
2019-03-04T06:18:17.470Z,17.80
2019-03-04T06:20:55.466Z,17.70
2019-03-04T06:23:47.550Z,17.80
2019-03-04T06:26:25.439Z,17.80
2019-03-04T06:29:14.842Z,17.80
2019-03-04T06:31:58.495Z,17.80
2019-03-04T06:34:43.215Z,17.70
2019-03-04T06:37:28.240Z,17.60
2019-03-04T06:40:13.027Z,17.60
2019-03-04T06:42:56.444Z,17.60
2019-03-04T06:48:31.817Z,17.70
2019-03-04T06:51:25.324Z,17.70
2019-03-04T06:57:28.960Z,17.80
2019-03-04T07:00:56.872Z,17.80
2019-03-04T07:03:50.598Z,17.80
2019-03-04T07:06:34.067Z,17.80
2019-03-04T07:09:28.605Z,17.80
2019-03-04T07:12:06.457Z,17.80
2019-03-04T07:14:59.953Z,17.80
2019-03-04T07:17:45.312Z,17.80
2019-03-04T07:20:38.058Z,17.80
2019-03-04T07:23:22.762Z,17.80
2019-03-04T07:28:56.707Z,17.90
2019-03-04T07:31:40.564Z,17.90
2019-03-04T07:34:24.944Z,17.90
2019-03-04T07:37:09.223Z,18.00
2019-03-04T07:39:55.139Z,18.10
2019-03-04T07:42:53.393Z,18.10
2019-03-04T07:45:44.627Z,18.10
2019-03-04T07:48:20.035Z,18.20
2019-03-04T07:53:59.805Z,18.20
2019-03-04T07:59:40.573Z,18.20
2019-03-04T08:02:23.863Z,18.20
2019-03-04T08:05:07.644Z,18.20
2019-03-04T08:08:10.820Z,18.20
2019-03-04T08:11:54.274Z,18.20
2019-03-04T08:14:31.494Z,18.30
2019-03-04T08:17:20.385Z,18.30
2019-03-04T08:20:03.801Z,18.30
2019-03-04T08:22:48.398Z,18.30
2019-03-04T08:25:32.055Z,18.50
2019-03-04T08:28:22.086Z,18.40
2019-03-04T08:31:05.808Z,18.50
2019-03-04T08:33:53.761Z,18.50
2019-03-04T08:36:31.215Z,18.60
2019-03-04T08:45:01.065Z,19.20
2019-03-04T08:47:57.746Z,19.40
2019-03-04T08:50:50.517Z,19.60
2019-03-04T08:53:32.270Z,19.50
2019-03-04T08:56:21.847Z,19.30
2019-03-04T08:59:04.209Z,19.10
2019-03-04T09:12:47.711Z,20.10
2019-03-04T09:15:45.001Z,20.10
2019-03-04T09:18:32.018Z,20.20
2019-03-04T09:21:12.926Z,20.40
2019-03-04T09:24:04.473Z,20.70
2019-03-04T09:27:05.463Z,21.00
2019-03-04T09:29:55.396Z,21.50
2019-03-04T09:32:46.902Z,21.30
2019-03-04T09:35:37.985Z,20.90
2019-03-04T09:38:16.018Z,20.60
2019-03-04T09:41:08.099Z,20.40
2019-03-04T09:43:46.347Z,20.40
2019-03-04T09:46:38.196Z,20.30
2019-03-04T09:49:24.834Z,19.90
2019-03-04T09:57:40.249Z,19.70
2019-03-04T10:00:42.235Z,19.60
2019-03-04T10:07:43.695Z,19.70
2019-03-04T10:10:57.658Z,19.90
2019-03-04T10:17:42.975Z,20.30
2019-03-04T10:20:58.241Z,20.40
2019-03-04T10:27:11.651Z,20.60
2019-03-04T10:30:35.720Z,20.70
2019-03-04T10:40:58.857Z,20.70
2019-03-04T10:49:50.299Z,20.80
2019-03-04T10:55:30.322Z,21.00
2019-03-04T10:58:13.353Z,21.10
2019-03-04T11:01:03.942Z,21.20
2019-03-04T11:03:41.792Z,21.20
2019-03-04T11:06:33.792Z,21.20
2019-03-04T11:12:15.643Z,21.20
2019-03-04T11:15:00.422Z,21.20
2019-03-04T11:17:45.148Z,21.10
2019-03-04T11:20:28.243Z,21.20
2019-03-04T11:26:02.992Z,21.30
2019-03-04T11:28:46.362Z,21.30
2019-03-04T11:31:36.931Z,21.50
2019-03-04T11:34:31.834Z,21.70
2019-03-04T11:37:19.297Z,21.80
2019-03-04T11:40:12.495Z,21.80
2019-03-04T11:45:59.172Z,22.00
2019-03-04T11:48:57.384Z,21.90
2019-03-04T11:51:49.185Z,21.90
2019-03-04T11:54:35.151Z,22.10
2019-03-04T11:57:23.521Z,22.10
2019-03-04T12:00:01.902Z,22.10
2019-03-04T12:02:52.931Z,22.10
2019-03-04T12:05:31.466Z,22.00
2019-03-04T12:08:22.704Z,22.40
2019-03-04T12:11:05.463Z,22.50
2019-03-04T12:13:54.839Z,22.70
2019-03-04T12:16:37.808Z,22.70
2019-03-04T12:19:28.938Z,22.70
2019-03-04T12:22:08.889Z,22.60
2019-03-04T12:27:43.591Z,22.50
2019-03-04T12:30:27.563Z,22.40
2019-03-04T12:38:43.965Z,22.00
2019-03-04T12:41:26.587Z,22.40
2019-03-04T12:44:17.265Z,22.50
2019-03-04T12:47:17.985Z,22.70
2019-03-04T12:50:09.165Z,22.30
2019-03-04T12:52:46.910Z,22.10
2019-03-04T12:58:31.959Z,22.30
2019-03-04T13:01:14.497Z,22.50
2019-03-04T13:06:45.509Z,22.60
2019-03-04T13:09:23.575Z,23.10
2019-03-04T13:17:42.641Z,25.30
2019-03-04T13:20:25.976Z,25.40
2019-03-04T13:23:23.035Z,25.10
2019-03-04T13:26:01.365Z,25.30
2019-03-04T13:28:52.341Z,26.00
2019-03-04T13:31:31.154Z,26.00
2019-03-04T13:34:22.893Z,26.70
2019-03-04T13:36:58.174Z,27.40
2019-03-04T13:39:48.373Z,27.90
2019-03-04T13:42:43.105Z,28.60
2019-03-04T13:45:28.585Z,29.40
2019-03-04T13:48:26.047Z,29.00
2019-03-04T13:54:04.562Z,28.60
2019-03-04T13:57:17.884Z,28.70
2019-03-04T14:00:13.651Z,28.20
2019-03-04T14:02:58.403Z,27.40
2019-03-04T14:05:41.887Z,29.00
2019-03-04T14:08:23.971Z,28.60
2019-03-04T14:13:57.852Z,28.70
2019-03-04T14:16:39.306Z,29.10
2019-03-04T14:19:28.081Z,29.40
2019-03-04T14:22:24.530Z,28.90
2019-03-04T14:25:16.631Z,28.70
2019-03-04T14:27:54.736Z,28.60
2019-03-04T14:33:27.862Z,28.60
2019-03-04T14:36:21.841Z,28.40
2019-03-04T14:39:06.244Z,27.90
2019-03-04T14:42:09.224Z,27.40
2019-03-04T14:45:01.040Z,26.70
2019-03-04T14:47:38.829Z,25.50
2019-03-04T14:53:13.543Z,24.20
2019-03-04T14:55:55.543Z,24.20
2019-03-04T14:58:46.318Z,24.10
2019-03-04T15:01:21.336Z,23.10
2019-03-04T15:04:24.662Z,22.20
2019-03-04T15:10:09.290Z,19.90
2019-03-04T15:12:47.755Z,19.30
2019-03-04T15:15:39.284Z,18.90
2019-03-04T15:18:16.986Z,18.50
2019-03-04T15:23:55.121Z,17.90
2019-03-04T15:26:43.646Z,18.00
2019-03-04T15:29:31.654Z,17.70
2019-03-04T15:32:13.510Z,17.50
2019-03-04T15:35:03.660Z,17.60
2019-03-04T15:37:41.657Z,17.60
2019-03-04T15:40:33.118Z,17.50
2019-03-04T15:43:10.470Z,17.20
2019-03-04T15:46:02.663Z,17.20
2019-03-04T15:48:40.921Z,17.20
2019-03-04T15:54:21.160Z,16.80
2019-03-04T15:57:08.793Z,16.60
2019-03-04T15:59:58.371Z,16.50
2019-03-04T16:02:40.008Z,16.60
2019-03-04T16:08:27.646Z,16.50
2019-03-04T16:11:07.321Z,16.50
2019-03-04T16:13:58.010Z,16.40
2019-03-04T16:16:45.560Z,16.20
2019-03-04T16:19:36.560Z,16.00
2019-03-04T16:22:17.602Z,15.90
2019-03-04T16:30:33.855Z,15.70
2019-03-04T16:36:13.151Z,15.10
2019-03-04T16:39:08.209Z,15.80
2019-03-04T16:44:35.440Z,15.70
2019-03-04T16:47:13.487Z,15.60
2019-03-04T16:52:47.230Z,15.60
2019-03-04T16:55:34.981Z,15.70
2019-03-04T17:03:52.670Z,15.60
2019-03-04T17:07:11.153Z,15.60
2019-03-04T17:10:33.371Z,15.50
2019-03-04T17:13:19.492Z,15.40
2019-03-04T17:16:04.332Z,15.40
2019-03-04T17:18:49.500Z,15.30
2019-03-04T17:21:41.610Z,15.10
2019-03-04T17:24:27.995Z,15.20
2019-03-04T17:27:12.478Z,15.20
2019-03-04T17:29:55.150Z,15.20
2019-03-04T17:32:44.284Z,15.10
2019-03-04T17:35:46.750Z,15.10
2019-03-04T17:38:40.227Z,15.00
2019-03-04T17:41:20.373Z,14.90
2019-03-04T17:44:13.487Z,15.00
2019-03-04T17:46:56.664Z,15.10
2019-03-04T17:49:47.937Z,15.10
2019-03-04T17:52:26.292Z,15.10
2019-03-04T18:00:44.954Z,14.90
2019-03-04T18:14:41.663Z,14.90
2019-03-04T18:17:26.104Z,14.80
2019-03-04T18:22:55.943Z,14.70
2019-03-04T18:25:55.802Z,14.70
2019-03-04T18:29:13.650Z,14.80
2019-03-04T18:52:19.271Z,14.70
2019-03-04T18:55:11.311Z,14.60
2019-03-04T18:58:10.631Z,14.50
2019-03-04T19:00:48.623Z,14.50
2019-03-04T19:03:53.589Z,14.50
2019-03-04T19:06:32.533Z,14.60
2019-03-04T19:09:25.569Z,14.60
2019-03-04T19:12:04.128Z,14.50
2019-03-04T19:17:35.583Z,14.50
2019-03-04T19:20:33.480Z,14.50
2019-03-04T19:23:26.445Z,14.40
2019-03-04T19:26:04.809Z,14.60
2019-03-04T19:28:57.177Z,14.50
2019-03-04T19:31:36.490Z,14.40
2019-03-04T19:37:17.218Z,14.40
2019-03-04T19:40:09.800Z,14.30
2019-03-04T19:43:11.926Z,14.40
2019-03-04T19:46:20.385Z,14.40
2019-03-04T19:49:28.431Z,14.40
2019-03-04T19:52:14.116Z,14.40
2019-03-04T19:55:00.971Z,14.30
2019-03-04T19:57:53.827Z,14.30
2019-03-04T20:09:13.008Z,14.30
2019-03-04T20:11:55.771Z,14.40
2019-03-04T20:14:56.350Z,14.40
2019-03-04T20:17:36.661Z,14.50
2019-03-04T20:20:32.157Z,14.40
2019-03-04T20:23:11.989Z,14.50
2019-03-04T20:25:56.235Z,14.40
2019-03-04T20:28:40.049Z,14.20
2019-03-04T20:31:38.345Z,14.30
2019-03-04T20:34:26.898Z,14.30
2019-03-04T20:37:27.154Z,14.30
2019-03-04T20:40:05.226Z,14.20
2019-03-04T20:43:07.060Z,14.20
2019-03-04T20:45:49.970Z,14.30
2019-03-04T20:48:42.858Z,14.30
2019-03-04T20:51:19.870Z,14.30
2019-03-04T20:54:18.447Z,14.30
2019-03-04T20:56:59.243Z,14.30
2019-03-04T21:00:04.359Z,14.40
2019-03-04T21:02:43.565Z,14.30
2019-03-04T21:08:30.025Z,14.20
2019-03-04T21:11:18.340Z,14.20
2019-03-04T21:14:06.060Z,14.30
2019-03-04T21:16:50.180Z,14.30
2019-03-04T21:19:45.493Z,14.30
2019-03-04T21:22:26.783Z,14.20
2019-03-04T21:25:28.198Z,14.20
2019-03-04T21:28:10.187Z,14.20
2019-03-04T21:34:54.595Z,14.10
2019-03-04T21:37:47.837Z,14.10
2019-03-04T21:41:22.902Z,14.10
2019-03-04T21:44:18.253Z,14.10
2019-03-04T21:47:37.952Z,14.10
2019-03-04T21:50:38.288Z,14.00
2019-03-04T21:53:44.383Z,14.00
2019-03-04T21:56:56.624Z,14.00
2019-03-04T21:59:51.922Z,14.10
2019-03-04T22:03:14.884Z,14.10
2019-03-04T22:08:57.502Z,14.10
2019-03-04T22:12:04.854Z,14.10
2019-03-04T22:15:16.655Z,14.00
2019-03-04T22:18:04.918Z,14.20
2019-03-04T22:24:00.988Z,14.20
2019-03-04T22:27:10.625Z,14.00
2019-03-04T22:33:08.602Z,14.10
2019-03-04T22:36:10.509Z,14.20
2019-03-04T22:39:03.338Z,14.10
2019-03-04T22:41:55.566Z,14.10
2019-03-04T22:44:47.392Z,14.00
2019-03-04T22:47:37.482Z,14.00
2019-03-04T22:50:27.857Z,14.00
2019-03-04T22:53:12.017Z,13.90
2019-03-04T22:55:56.693Z,13.90
2019-03-04T22:58:39.980Z,13.90
2019-03-04T23:01:47.606Z,14.00
2019-03-04T23:04:34.631Z,14.00
2019-03-04T23:07:35.173Z,14.00
2019-03-04T23:10:28.914Z,14.00
2019-03-04T23:13:29.732Z,14.00
2019-03-04T23:16:13.051Z,13.90
2019-03-04T23:19:01.720Z,13.90
2019-03-04T23:21:44.371Z,14.10
2019-03-04T23:24:34.455Z,14.10
2019-03-04T23:27:16.511Z,14.10
2019-03-04T23:30:21.152Z,14.10
2019-03-04T23:33:17.347Z,14.10
2019-03-04T23:36:01.154Z,14.00
2019-03-04T23:38:44.938Z,14.00
2019-03-04T23:41:29.533Z,14.00
2019-03-04T23:44:13.220Z,14.00
2019-03-04T23:46:57.491Z,13.90
2019-03-04T23:49:41.845Z,13.80
2019-03-04T23:52:30.441Z,13.80
2019-03-04T23:55:13.734Z,13.80
2019-03-04T23:58:02.061Z,13.70
